Time;durP1;ratioP1;P1;durP2;ratioP2;P2;SDS_P1;SDS_P2;PMS_P1;PMS_P2;Temp;Humidity;BMP_temperature;BMP_pressure;BME280_temperature;BME280_humidity;BME280_pressure;Samples;Min_cycle;Max_cycle;Signal;HPM_P1;HPM_P2
2024/01/11 00:01:29;;;;;;;50.22;32.90;;;;;;;;;;5092117;28;20226;-66
2024/01/11 00:03:57;;;;;;;51.45;33.67;;;;;;;;;;5090376;28;20224;-66
2024/01/11 00:06:23;;;;;;;57.97;33.55;;;;;;;;;;5082554;28;20255;-66
2024/01/11 00:08:49;;;;;;;52.50;34.20;;;;;;;;;;5092627;28;20690;-66
2024/01/11 00:11:16;;;;;;;50.78;33.05;;;;;;;;;;5098026;28;20237;-66
2024/01/11 00:13:42;;;;;;;49.83;33.17;;;;;;;;;;5100006;28;20224;-66
2024/01/11 00:16:09;;;;;;;56.13;36.75;;;;;;;;;;5103160;28;20213;-66
2024/01/11 00:18:35;;;;;;;53.50;32.55;;;;;;;;;;5100914;28;20219;-66
2024/01/11 00:21:03;;;;;;;43.47;32.03;;;;;;;;;;5098613;28;20343;-66
2024/01/11 00:23:29;;;;;;;51.83;31.23;;;;;;;;;;5098818;28;20765;-66
2024/01/11 00:25:56;;;;;;;50.13;29.58;;;;;;;;;;5099672;28;20670;-66
2024/01/11 00:28:22;;;;;;;55.80;28.52;;;;;;;;;;5101946;28;20296;-65
2024/01/11 00:30:48;;;;;;;50.53;31.45;;;;;;;;;;5099501;28;20209;-65
2024/01/11 00:33:15;;;;;;;48.42;29.02;;;;;;;;;;5097965;28;20260;-66
2024/01/11 00:35:41;;;;;;;53.03;32.83;;;;;;;;;;5103965;28;20268;-66
2024/01/11 00:38:09;;;;;;;47.85;32.55;;;;;;;;;;5098127;28;20300;-66
2024/01/11 00:40:35;;;;;;;58.83;35.60;;;;;;;;;;5093478;28;20281;-66
2024/01/11 00:43:02;;;;;;;53.97;34.05;;;;;;;;;;5105033;28;20233;-65
2024/01/11 00:45:28;;;;;;;51.70;32.72;;;;;;;;;;5093246;28;20236;-65
2024/01/11 00:47:54;;;;;;;47.95;35.17;;;;;;;;;;5107135;28;20242;-66
2024/01/11 00:50:21;;;;;;;46.58;36.10;;;;;;;;;;5094732;28;20241;-65
2024/01/11 00:52:47;;;;;;;45.75;33.78;;;;;;;;;;5108155;28;20350;-64
2024/01/11 00:55:16;;;;;;;57.67;36.17;;;;;;;;;;5096946;28;20252;-67
2024/01/11 00:57:42;;;;;;;51.00;34.50;;;;;;;;;;5092061;28;20213;-66
2024/01/11 01:00:12;;;;;;;55.97;33.35;;;;;;;;;;5096352;28;20701;-65
2024/01/11 01:02:39;;;;;;;55.38;31.40;;;;;;;;;;5103365;28;20261;-66
2024/01/11 01:05:06;;;;;;;50.13;35.35;;;;;;;;;;5095485;28;20244;-64
2024/01/11 01:07:32;;;;;;;48.92;31.95;;;;;;;;;;5092580;28;20639;-65
2024/01/11 01:09:58;;;;;;;52.40;33.15;;;;;;;;;;5094854;28;20276;-65
2024/01/11 01:12:26;;;;;;;55.67;34.85;;;;;;;;;;5094829;28;20204;-65
2024/01/11 01:14:53;;;;;;;52.78;35.00;;;;;;;;;;5098115;28;20240;-66
2024/01/11 01:17:19;;;;;;;58.08;36.47;;;;;;;;;;5093951;28;20288;-66
2024/01/11 01:19:46;;;;;;;50.85;33.22;;;;;;;;;;5095884;28;20232;-65
2024/01/11 01:22:12;;;;;;;48.90;33.92;;;;;;;;;;5097760;28;20779;-65
2024/01/11 01:24:38;;;;;;;43.45;30.90;;;;;;;;;;5095007;28;20225;-66
2024/01/11 01:27:05;;;;;;;47.30;31.17;;;;;;;;;;5099734;28;20271;-66
2024/01/11 01:29:33;;;;;;;45.97;32.65;;;;;;;;;;5104573;28;20289;-64
2024/01/11 01:32:00;;;;;;;45.22;31.50;;;;;;;;;;5099705;28;20206;-66
2024/01/11 01:34:26;;;;;;;43.03;31.95;;;;;;;;;;5096014;28;20215;-65
2024/01/11 01:36:53;;;;;;;47.05;32.90;;;;;;;;;;5095710;28;20279;-66
2024/01/11 01:39:19;;;;;;;50.08;32.47;;;;;;;;;;5087988;28;20764;-65
2024/01/11 01:41:46;;;;;;;51.10;33.95;;;;;;;;;;5092870;28;20644;-66
2024/01/11 01:44:12;;;;;;;55.08;32.03;;;;;;;;;;5095391;28;20227;-65
2024/01/11 01:46:40;;;;;;;41.85;31.85;;;;;;;;;;5103164;28;20277;-66
2024/01/11 01:49:06;;;;;;;48.47;28.65;;;;;;;;;;5100932;28;20224;-66
2024/01/11 01:51:34;;;;;;;45.13;29.65;;;;;;;;;;5102736;28;20254;-66
2024/01/11 01:54:01;;;;;;;46.45;30.65;;;;;;;;;;5094081;28;20708;-66
2024/01/11 01:56:27;;;;;;;45.00;31.77;;;;;;;;;;5090782;28;20621;-66
2024/01/11 01:58:54;;;;;;;52.35;33.25;;;;;;;;;;5086838;28;20239;-65
2024/01/11 02:01:21;;;;;;;50.38;32.30;;;;;;;;;;5091116;28;20248;-66
2024/01/11 02:03:50;;;;;;;42.95;29.45;;;;;;;;;;5092615;28;20201;-65
2024/01/11 02:06:17;;;;;;;46.45;31.08;;;;;;;;;;5097175;28;20312;-64
2024/01/11 02:08:43;;;;;;;55.28;34.20;;;;;;;;;;5091190;28;20240;-66
2024/01/11 02:11:11;;;;;;;49.78;31.50;;;;;;;;;;5095813;28;20308;-66
2024/01/11 02:13:38;;;;;;;45.72;31.13;;;;;;;;;;5095916;28;20232;-64
2024/01/11 02:16:04;;;;;;;52.45;31.48;;;;;;;;;;5100925;28;20287;-64
2024/01/11 02:18:31;;;;;;;49.20;30.73;;;;;;;;;;5093332;28;20210;-66
2024/01/11 02:20:59;;;;;;;49.33;32.30;;;;;;;;;;5094646;28;20205;-66
2024/01/11 02:23:25;;;;;;;51.85;33.40;;;;;;;;;;5096214;28;20201;-66
2024/01/11 02:25:53;;;;;;;51.05;31.50;;;;;;;;;;5100205;28;20247;-67
2024/01/11 02:28:20;;;;;;;45.15;33.70;;;;;;;;;;5098859;28;20211;-65
2024/01/11 02:30:46;;;;;;;46.75;31.98;;;;;;;;;;5098247;28;20336;-65
2024/01/11 02:33:15;;;;;;;46.67;29.80;;;;;;;;;;5103977;28;20210;-67
2024/01/11 02:35:42;;;;;;;43.20;30.42;;;;;;;;;;5096633;28;20319;-65
2024/01/11 02:38:09;;;;;;;48.45;26.85;;;;;;;;;;5092621;28;20210;-66
2024/01/11 02:40:36;;;;;;;56.22;27.80;;;;;;;;;;5097051;28;20573;-64
2024/01/11 02:43:09;;;;;;;45.20;27.08;;;;;;;;;;5090190;28;20271;-65
2024/01/11 02:45:36;;;;;;;38.38;28.50;;;;;;;;;;5091704;28;20245;-66
2024/01/11 02:48:02;;;;;;;54.20;33.00;;;;;;;;;;5113475;28;20752;-66
2024/01/11 02:50:28;;;;;;;45.58;34.50;;;;;;;;;;5097164;28;20735;-66
2024/01/11 02:52:55;;;;;;;50.33;34.58;;;;;;;;;;5091320;28;20218;-67
2024/01/11 02:55:21;;;;;;;45.90;30.95;;;;;;;;;;5091323;28;20901;-65
2024/01/11 02:57:48;;;;;;;41.60;31.17;;;;;;;;;;5098742;28;20287;-65
2024/01/11 03:00:15;;;;;;;41.58;30.00;;;;;;;;;;5090658;28;20843;-65
2024/01/11 03:02:42;;;;;;;50.25;30.45;;;;;;;;;;5084199;28;20253;-65
2024/01/11 03:05:08;;;;;;;50.28;32.47;;;;;;;;;;5093267;28;20209;-65
2024/01/11 03:07:35;;;;;;;44.13;29.65;;;;;;;;;;5095378;28;20263;-64
2024/01/11 03:10:01;;;;;;;46.42;31.67;;;;;;;;;;5094149;28;20208;-66
2024/01/11 03:12:28;;;;;;;50.33;30.80;;;;;;;;;;5103851;28;20241;-66
2024/01/11 03:14:55;;;;;;;49.22;29.77;;;;;;;;;;5098321;28;20209;-66
2024/01/11 03:17:22;;;;;;;42.60;32.05;;;;;;;;;;5097905;28;20250;-66
2024/01/11 03:19:49;;;;;;;48.15;28.98;;;;;;;;;;5092554;28;20240;-66
2024/01/11 03:22:15;;;;;;;47.15;31.15;;;;;;;;;;5091524;28;20229;-66
2024/01/11 03:24:41;;;;;;;43.03;24.40;;;;;;;;;;5083806;28;20292;-65
2024/01/11 03:27:08;;;;;;;49.47;29.88;;;;;;;;;;5095028;28;20237;-65
2024/01/11 03:29:34;;;;;;;49.78;27.10;;;;;;;;;;5096605;28;20268;-66
2024/01/11 03:32:01;;;;;;;42.50;27.60;;;;;;;;;;5088192;28;20301;-66
2024/01/11 03:34:28;;;;;;;40.67;23.10;;;;;;;;;;5097869;28;20231;-66
2024/01/11 03:36:55;;;;;;;50.05;28.90;;;;;;;;;;5095929;28;20264;-66
2024/01/11 03:39:21;;;;;;;44.30;26.83;;;;;;;;;;5096552;28;20223;-66
2024/01/11 03:41:48;;;;;;;52.78;27.10;;;;;;;;;;5095004;28;20267;-67
2024/01/11 03:44:15;;;;;;;44.53;24.92;;;;;;;;;;5094343;28;20201;-66
2024/01/11 03:46:41;;;;;;;48.00;25.75;;;;;;;;;;5091620;28;20669;-67
2024/01/11 03:49:08;;;;;;;47.70;25.55;;;;;;;;;;5097999;28;20945;-66
2024/01/11 03:51:36;;;;;;;42.22;24.85;;;;;;;;;;5101515;28;20201;-66
2024/01/11 03:54:03;;;;;;;49.28;27.13;;;;;;;;;;5091137;28;20866;-66
2024/01/11 03:56:30;;;;;;;44.75;26.95;;;;;;;;;;5098175;28;20843;-66
2024/01/11 03:58:56;;;;;;;49.58;28.02;;;;;;;;;;5094899;28;20233;-65
2024/01/11 04:01:22;;;;;;;39.28;25.42;;;;;;;;;;5096295;28;20265;-66
2024/01/11 04:03:50;;;;;;;50.25;27.38;;;;;;;;;;5089829;28;20244;-65
2024/01/11 04:06:20;;;;;;;42.42;24.52;;;;;;;;;;5096348;28;20213;-67
2024/01/11 04:08:48;;;;;;;46.03;24.42;;;;;;;;;;5099650;28;20201;-64
2024/01/11 04:11:15;;;;;;;42.22;25.38;;;;;;;;;;5086864;28;20239;-65
2024/01/11 04:13:41;;;;;;;41.17;25.48;;;;;;;;;;5101975;28;20239;-64
2024/01/11 04:16:07;;;;;;;43.20;27.38;;;;;;;;;;5094146;28;20240;-66
2024/01/11 04:18:34;;;;;;;44.22;25.13;;;;;;;;;;5095425;28;20313;-67
2024/01/11 04:21:00;;;;;;;45.95;26.13;;;;;;;;;;5096481;28;20268;-67
2024/01/11 04:23:27;;;;;;;36.72;23.67;;;;;;;;;;5099480;28;20257;-66
2024/01/11 04:25:54;;;;;;;38.22;26.98;;;;;;;;;;5096143;28;20249;-66
2024/01/11 04:28:21;;;;;;;42.58;25.40;;;;;;;;;;5097340;28;20319;-66
2024/01/11 04:30:47;;;;;;;42.42;26.80;;;;;;;;;;5094058;28;20228;-67
2024/01/11 04:33:14;;;;;;;37.70;23.27;;;;;;;;;;5101174;28;20240;-67
2024/01/11 04:35:40;;;;;;;48.47;25.25;;;;;;;;;;5100120;28;20271;-66
2024/01/11 04:38:06;;;;;;;44.45;24.38;;;;;;;;;;5094407;28;20236;-66
2024/01/11 04:40:33;;;;;;;42.97;23.83;;;;;;;;;;5093581;28;20217;-67
2024/01/11 04:43:01;;;;;;;43.60;23.83;;;;;;;;;;5095019;28;20248;-65
2024/01/11 04:45:27;;;;;;;36.97;22.65;;;;;;;;;;5100438;28;20763;-66
2024/01/11 04:47:54;;;;;;;46.90;27.17;;;;;;;;;;5099193;28;20285;-65
2024/01/11 04:50:20;;;;;;;38.65;24.35;;;;;;;;;;5095141;28;20261;-65
2024/01/11 04:52:47;;;;;;;40.85;26.13;;;;;;;;;;5090798;28;20626;-67
2024/01/11 04:55:13;;;;;;;45.08;25.63;;;;;;;;;;5092862;28;20268;-66
2024/01/11 04:57:41;;;;;;;42.50;26.05;;;;;;;;;;5089784;28;20248;-67
2024/01/11 05:00:10;;;;;;;38.63;24.75;;;;;;;;;;5094588;28;20219;-67
2024/01/11 05:02:36;;;;;;;33.53;23.70;;;;;;;;;;5097179;28;20294;-67
2024/01/11 05:05:03;;;;;;;44.10;26.02;;;;;;;;;;5106494;28;20737;-66
2024/01/11 05:07:29;;;;;;;37.88;23.50;;;;;;;;;;5100212;28;20296;-67
2024/01/11 05:09:56;;;;;;;38.75;23.70;;;;;;;;;;5098687;28;20773;-67
2024/01/11 05:12:22;;;;;;;42.80;24.17;;;;;;;;;;5095655;28;20224;-66
2024/01/11 05:14:49;;;;;;;37.15;22.70;;;;;;;;;;5086002;28;20633;-67
2024/01/11 05:17:16;;;;;;;34.63;22.02;;;;;;;;;;5095605;28;20237;-66
2024/01/11 05:19:43;;;;;;;44.25;24.33;;;;;;;;;;5099297;28;20205;-67
2024/01/11 05:22:09;;;;;;;39.95;24.00;;;;;;;;;;5091831;28;20217;-67
2024/01/11 05:24:35;;;;;;;38.50;24.52;;;;;;;;;;5099983;28;20237;-66
2024/01/11 05:27:02;;;;;;;34.75;24.48;;;;;;;;;;5090985;28;21058;-67
2024/01/11 05:29:28;;;;;;;44.05;25.35;;;;;;;;;;5088780;28;20265;-66
2024/01/11 05:31:55;;;;;;;44.05;25.38;;;;;;;;;;5095504;28;20276;-64
2024/01/11 05:34:23;;;;;;;42.13;24.10;;;;;;;;;;5093958;28;20223;-65
2024/01/11 05:36:49;;;;;;;38.05;24.20;;;;;;;;;;5096612;28;20301;-67
2024/01/11 05:39:16;;;;;;;39.72;24.65;;;;;;;;;;5098083;28;20201;-67
2024/01/11 05:41:44;;;;;;;46.03;25.73;;;;;;;;;;5092631;28;20201;-67
2024/01/11 05:44:10;;;;;;;41.72;23.00;;;;;;;;;;5090051;28;20249;-67
2024/01/11 05:46:37;;;;;;;40.63;23.52;;;;;;;;;;5089549;28;20296;-66
2024/01/11 05:49:03;;;;;;;38.78;25.10;;;;;;;;;;5093044;28;20715;-67
2024/01/11 05:51:30;;;;;;;41.78;26.38;;;;;;;;;;5099181;28;20209;-66
2024/01/11 05:53:56;;;;;;;31.75;21.95;;;;;;;;;;5098142;28;20260;-66
2024/01/11 05:56:23;;;;;;;43.58;25.35;;;;;;;;;;5091326;28;20252;-66
2024/01/11 05:58:49;;;;;;;42.53;25.58;;;;;;;;;;5095069;28;20292;-66
2024/01/11 06:01:15;;;;;;;40.47;24.25;;;;;;;;;;5092590;28;20958;-67
2024/01/11 06:03:42;;;;;;;46.30;26.80;;;;;;;;;;5094668;28;20247;-67
2024/01/11 06:06:08;;;;;;;48.92;25.25;;;;;;;;;;5095973;28;20252;-65
2024/01/11 06:08:36;;;;;;;41.25;26.63;;;;;;;;;;5099356;28;20227;-64
2024/01/11 06:11:03;;;;;;;38.35;25.58;;;;;;;;;;5094196;28;20228;-67
2024/01/11 06:13:30;;;;;;;36.35;22.63;;;;;;;;;;5098809;28;20235;-67
2024/01/11 06:15:56;;;;;;;44.47;25.75;;;;;;;;;;5094251;28;20229;-66
2024/01/11 06:18:23;;;;;;;33.40;23.98;;;;;;;;;;5088964;28;20209;-66
2024/01/11 06:20:49;;;;;;;40.63;25.83;;;;;;;;;;5094816;28;20301;-66
2024/01/11 06:23:16;;;;;;;46.50;25.17;;;;;;;;;;5094646;28;20280;-65
2024/01/11 06:25:46;;;;;;;40.55;25.08;;;;;;;;;;5100687;28;20232;-64
2024/01/11 06:28:12;;;;;;;37.45;24.23;;;;;;;;;;5091898;28;20200;-65
2024/01/11 06:30:38;;;;;;;40.55;21.00;;;;;;;;;;5088526;28;20233;-66
2024/01/11 06:33:05;;;;;;;36.38;22.15;;;;;;;;;;5100577;28;20291;-66
2024/01/11 06:35:32;;;;;;;41.47;23.75;;;;;;;;;;5097785;28;20298;-66
2024/01/11 06:37:58;;;;;;;43.20;25.40;;;;;;;;;;5104767;28;20239;-67
2024/01/11 06:40:25;;;;;;;47.30;28.13;;;;;;;;;;5103978;28;20208;-65
2024/01/11 06:42:53;;;;;;;44.83;27.05;;;;;;;;;;5108527;28;20693;-66
2024/01/11 06:45:19;;;;;;;43.97;28.75;;;;;;;;;;5096847;28;20240;-65
2024/01/11 06:47:46;;;;;;;44.42;30.35;;;;;;;;;;5090030;28;20903;-64
2024/01/11 06:50:13;;;;;;;34.58;25.80;;;;;;;;;;5093449;28;20231;-65
2024/01/11 06:52:40;;;;;;;38.65;27.73;;;;;;;;;;5091463;28;20206;-65
2024/01/11 06:55:07;;;;;;;43.05;30.63;;;;;;;;;;5092411;28;20280;-64
2024/01/11 06:57:33;;;;;;;42.42;27.15;;;;;;;;;;5093792;28;20212;-66
2024/01/11 07:00:01;;;;;;;44.50;29.95;;;;;;;;;;5094753;28;20277;-65
2024/01/11 07:02:27;;;;;;;35.53;29.80;;;;;;;;;;5091266;28;20233;-66
2024/01/11 07:04:54;;;;;;;43.05;28.40;;;;;;;;;;5098041;28;20292;-65
2024/01/11 07:07:20;;;;;;;37.55;26.35;;;;;;;;;;5091057;28;20212;-66
2024/01/11 07:09:47;;;;;;;40.05;25.98;;;;;;;;;;5089719;28;20248;-66
2024/01/11 07:12:13;;;;;;;33.97;23.30;;;;;;;;;;5092975;28;20212;-65
2024/01/11 07:14:39;;;;;;;38.45;24.50;;;;;;;;;;5092424;28;20733;-65
2024/01/11 07:17:07;;;;;;;40.47;25.20;;;;;;;;;;5089044;28;20247;-67
2024/01/11 07:19:34;;;;;;;33.88;24.52;;;;;;;;;;5092857;28;20284;-66
2024/01/11 07:22:00;;;;;;;51.33;25.88;;;;;;;;;;5095010;28;20233;-66
2024/01/11 07:24:26;;;;;;;41.13;24.70;;;;;;;;;;5093429;28;20244;-66
2024/01/11 07:26:53;;;;;;;38.40;25.27;;;;;;;;;;5096532;28;20244;-66
2024/01/11 07:29:20;;;;;;;46.72;26.52;;;;;;;;;;5100662;28;20212;-66
2024/01/11 07:31:46;;;;;;;44.35;27.17;;;;;;;;;;5088932;28;20232;-66
2024/01/11 07:34:14;;;;;;;44.40;26.80;;;;;;;;;;5099522;28;20520;-66
2024/01/11 07:36:40;;;;;;;46.85;27.42;;;;;;;;;;5101928;28;20245;-65
2024/01/11 07:39:07;;;;;;;41.78;26.23;;;;;;;;;;5100344;28;20232;-66
2024/01/11 07:41:33;;;;;;;45.40;25.30;;;;;;;;;;5094113;28;20227;-65
2024/01/11 07:43:59;;;;;;;46.47;27.63;;;;;;;;;;5102895;28;20272;-66
2024/01/11 07:46:26;;;;;;;42.10;26.25;;;;;;;;;;5098155;28;20205;-73
2024/01/11 07:48:53;;;;;;;40.00;25.40;;;;;;;;;;5095733;28;20213;-69
2024/01/11 07:51:20;;;;;;;45.03;26.77;;;;;;;;;;5096862;28;20245;-72
2024/01/11 07:53:47;;;;;;;43.65;26.10;;;;;;;;;;5097698;28;20220;-70
2024/01/11 07:56:13;;;;;;;37.90;23.08;;;;;;;;;;5098893;28;20240;-71
2024/01/11 07:58:41;;;;;;;47.90;28.00;;;;;;;;;;5095890;28;20209;-67
2024/01/11 08:01:07;;;;;;;40.30;29.83;;;;;;;;;;5096873;28;20270;-66
2024/01/11 08:03:35;;;;;;;44.15;30.15;;;;;;;;;;5097441;28;20232;-72
2024/01/11 08:06:01;;;;;;;41.63;28.52;;;;;;;;;;5088239;28;20299;-69
2024/01/11 08:08:29;;;;;;;41.78;29.95;;;;;;;;;;5101129;28;20216;-67
2024/01/11 08:10:55;;;;;;;43.05;28.77;;;;;;;;;;5097735;28;20208;-72
2024/01/11 08:13:22;;;;;;;39.15;28.08;;;;;;;;;;5101552;28;20213;-70
2024/01/11 08:15:48;;;;;;;42.53;30.77;;;;;;;;;;5106487;28;20560;-71
2024/01/11 08:18:15;;;;;;;55.75;33.33;;;;;;;;;;5091404;28;20244;-69
2024/01/11 08:20:41;;;;;;;52.10;33.53;;;;;;;;;;5087958;28;20212;-74
2024/01/11 08:23:08;;;;;;;41.22;28.45;;;;;;;;;;5091232;28;20241;-67
2024/01/11 08:25:35;;;;;;;41.92;30.65;;;;;;;;;;5095929;28;20220;-72
2024/01/11 08:28:02;;;;;;;47.17;29.17;;;;;;;;;;5092980;28;20240;-71
2024/01/11 08:30:29;;;;;;;46.10;31.35;;;;;;;;;;5094315;28;20205;-70
2024/01/11 08:32:55;;;;;;;44.50;28.70;;;;;;;;;;5094970;28;20637;-72
2024/01/11 08:35:22;;;;;;;42.50;27.70;;;;;;;;;;5105192;28;20232;-71
2024/01/11 08:37:49;;;;;;;46.08;28.92;;;;;;;;;;5098497;28;20249;-71
2024/01/11 08:40:15;;;;;;;38.00;28.30;;;;;;;;;;5106325;28;20208;-70
2024/01/11 08:42:43;;;;;;;44.25;29.13;;;;;;;;;;5102501;28;20295;-72
2024/01/11 08:45:10;;;;;;;45.40;31.63;;;;;;;;;;5098531;28;20251;-73
2024/01/11 08:47:38;;;;;;;42.60;28.88;;;;;;;;;;5095886;28;20238;-69
2024/01/11 08:50:06;;;;;;;46.20;31.05;;;;;;;;;;5105538;28;20247;-70
2024/01/11 08:52:32;;;;;;;41.25;29.23;;;;;;;;;;5105338;28;20268;-72
2024/01/11 08:54:58;;;;;;;38.15;25.77;;;;;;;;;;5108091;28;20731;-69
2024/01/11 08:57:25;;;;;;;42.65;27.65;;;;;;;;;;5093444;28;20239;-70
2024/01/11 08:59:54;;;;;;;41.35;26.42;;;;;;;;;;5090268;28;20316;-71
2024/01/11 09:02:23;;;;;;;37.85;26.10;;;;;;;;;;5102740;28;20219;-68
2024/01/11 09:04:50;;;;;;;40.03;28.15;;;;;;;;;;5099440;28;20662;-73
2024/01/11 09:07:16;;;;;;;41.87;28.80;;;;;;;;;;5101932;28;20268;-68
2024/01/11 09:09:43;;;;;;;38.83;26.30;;;;;;;;;;5103289;28;20482;-69
2024/01/11 09:12:10;;;;;;;32.63;25.00;;;;;;;;;;5100335;28;20560;-71
2024/01/11 09:14:36;;;;;;;37.13;26.57;;;;;;;;;;5097865;28;20447;-72
2024/01/11 09:17:06;;;;;;;32.37;24.47;;;;;;;;;;5089317;28;20471;-72
2024/01/11 09:19:33;;;;;;;34.73;25.20;;;;;;;;;;5098838;28;20455;-73
2024/01/11 09:22:00;;;;;;;32.77;25.40;;;;;;;;;;5097188;28;20522;-70
2024/01/11 09:24:26;;;;;;;35.03;26.60;;;;;;;;;;5092450;28;20515;-69
2024/01/11 09:26:52;;;;;;;35.30;25.30;;;;;;;;;;5100554;28;20461;-71
2024/01/11 09:29:19;;;;;;;34.63;25.67;;;;;;;;;;5093710;28;20520;-72
2024/01/11 09:31:45;;;;;;;37.87;28.13;;;;;;;;;;5103093;28;20455;-75
2024/01/11 09:34:13;;;;;;;41.63;26.43;;;;;;;;;;5097588;28;20791;-76
2024/01/11 09:36:39;;;;;;;34.87;26.87;;;;;;;;;;5094680;28;20558;-74
2024/01/11 09:39:07;;;;;;;39.30;26.60;;;;;;;;;;5092874;28;20535;-73
2024/01/11 09:41:36;;;;;;;32.90;25.47;;;;;;;;;;5105764;28;20966;-76
2024/01/11 09:44:04;;;;;;;36.50;27.10;;;;;;;;;;5100856;28;20505;-75
2024/01/11 09:46:30;;;;;;;30.80;25.93;;;;;;;;;;5089695;28;20915;-80
2024/01/11 09:48:58;;;;;;;33.87;26.90;;;;;;;;;;5094468;28;21015;-75
2024/01/11 09:51:26;;;;;;;36.00;27.83;;;;;;;;;;5094500;28;20462;-76
2024/01/11 09:53:55;;;;;;;34.73;27.57;;;;;;;;;;5093083;28;20516;-73
2024/01/11 09:56:23;;;;;;;35.97;27.03;;;;;;;;;;5104691;28;20443;-66
2024/01/11 09:58:50;;;;;;;35.70;26.93;;;;;;;;;;5089884;28;20517;-67
2024/01/11 10:01:16;;;;;;;34.63;28.13;;;;;;;;;;5100865;28;20486;-66
2024/01/11 10:03:43;;;;;;;31.77;27.93;;;;;;;;;;5101446;28;20489;-67
2024/01/11 10:06:10;;;;;;;33.90;27.03;;;;;;;;;;5092242;28;20522;-67
2024/01/11 10:08:38;;;;;;;30.63;26.30;;;;;;;;;;5096822;28;20435;-68
2024/01/11 10:11:04;;;;;;;34.30;27.10;;;;;;;;;;5095376;28;20447;-68
2024/01/11 10:13:32;;;;;;;34.60;27.93;;;;;;;;;;5100721;28;20471;-67
2024/01/11 10:16:16;;;;;;;33.87;26.47;;;;;;;;;;5097546;28;20523;-67
2024/01/11 10:18:44;;;;;;;38.10;30.47;;;;;;;;;;5104530;28;20457;-67
2024/01/11 10:21:10;;;;;;;34.30;29.73;;;;;;;;;;5101078;28;20455;-69
2024/01/11 10:23:38;;;;;;;35.83;30.60;;;;;;;;;;5096767;28;20484;-68
2024/01/11 10:26:07;;;;;;;39.80;31.63;;;;;;;;;;5093491;28;20460;-67
2024/01/11 10:28:37;;;;;;;43.53;32.27;;;;;;;;;;5093675;28;20466;-67
2024/01/11 10:31:04;;;;;;;36.77;31.13;;;;;;;;;;5100022;28;20463;-68
2024/01/11 10:33:30;;;;;;;40.23;31.43;;;;;;;;;;5105628;28;20484;-66
2024/01/11 10:35:56;;;;;;;35.60;28.30;;;;;;;;;;5105152;28;20581;-67
2024/01/11 10:38:23;;;;;;;41.20;26.70;;;;;;;;;;5096175;28;21202;-67
2024/01/11 10:40:51;;;;;;;36.00;27.17;;;;;;;;;;5101621;28;21357;-68
2024/01/11 10:43:22;;;;;;;36.97;26.37;;;;;;;;;;5094059;28;20914;-66
2024/01/11 10:45:49;;;;;;;40.17;26.83;;;;;;;;;;5094888;28;20554;-67
2024/01/11 10:48:16;;;;;;;33.77;28.03;;;;;;;;;;5098950;28;20455;-67
2024/01/11 10:50:44;;;;;;;36.27;29.50;;;;;;;;;;5101064;28;20475;-67
2024/01/11 10:53:13;;;;;;;40.43;28.60;;;;;;;;;;5092483;28;20537;-66
2024/01/11 10:55:40;;;;;;;37.27;28.47;;;;;;;;;;5098916;28;20511;-66
2024/01/11 10:58:08;;;;;;;37.47;28.10;;;;;;;;;;5084704;28;20455;-67
2024/01/11 11:00:36;;;;;;;34.60;27.83;;;;;;;;;;5097120;28;20447;-66
2024/01/11 11:03:03;;;;;;;35.63;29.10;;;;;;;;;;5094668;28;20451;-66
2024/01/11 11:05:30;;;;;;;31.40;27.27;;;;;;;;;;5093826;28;20557;-66
2024/01/11 11:07:57;;;;;;;33.10;26.87;;;;;;;;;;5094391;28;20458;-65
2024/01/11 11:10:25;;;;;;;30.07;26.53;;;;;;;;;;5094674;28;20940;-66
2024/01/11 11:12:52;;;;;;;38.73;27.17;;;;;;;;;;5097362;28;20455;-66
2024/01/11 11:15:21;;;;;;;31.10;26.40;;;;;;;;;;5103616;28;20522;-66
2024/01/11 11:17:50;;;;;;;32.13;25.53;;;;;;;;;;5086961;28;20581;-66
2024/01/11 11:20:16;;;;;;;32.87;26.20;;;;;;;;;;5096167;28;20473;-66
2024/01/11 11:22:43;;;;;;;38.53;23.90;;;;;;;;;;5095881;28;20459;-65
2024/01/11 11:25:10;;;;;;;33.87;24.93;;;;;;;;;;5088698;28;20524;-64
2024/01/11 11:27:36;;;;;;;32.60;24.97;;;;;;;;;;5106720;28;20450;-65
2024/01/11 11:30:04;;;;;;;33.43;25.20;;;;;;;;;;5090841;28;20523;-65
2024/01/11 11:32:44;;;;;;;29.80;23.37;;;;;;;;;;5089769;28;20459;-64
2024/01/11 11:35:10;;;;;;;35.33;25.03;;;;;;;;;;5086771;28;20504;-65
2024/01/11 11:37:37;;;;;;;32.40;23.47;;;;;;;;;;5094736;28;20482;-65
2024/01/11 11:40:04;;;;;;;34.80;24.20;;;;;;;;;;5096199;28;20481;-65
2024/01/11 11:42:31;;;;;;;34.20;23.23;;;;;;;;;;5087177;28;20456;-65
2024/01/11 11:44:57;;;;;;;37.70;26.07;;;;;;;;;;5089772;28;20577;-72
2024/01/11 11:47:25;;;;;;;39.73;23.93;;;;;;;;;;5095964;28;20633;-69
2024/01/11 11:50:00;;;;;;;39.87;25.80;;;;;;;;;;5099969;28;20452;-69
2024/01/11 11:52:26;;;;;;;37.43;24.77;;;;;;;;;;5093675;28;20452;-69
2024/01/11 11:54:54;;;;;;;38.17;25.03;;;;;;;;;;5097486;28;20519;-69
2024/01/11 11:57:21;;;;;;;38.23;24.80;;;;;;;;;;5102771;28;20502;-69
2024/01/11 11:59:49;;;;;;;44.03;26.57;;;;;;;;;;5095620;28;20435;-70
2024/01/11 12:02:17;;;;;;;35.67;24.10;;;;;;;;;;5092434;28;21159;-71
2024/01/11 12:04:47;;;;;;;37.17;23.50;;;;;;;;;;5092965;28;20520;-70
2024/01/11 12:07:15;;;;;;;40.17;23.07;;;;;;;;;;5094128;28;20974;-70
2024/01/11 12:09:42;;;;;;;35.07;23.07;;;;;;;;;;5105886;28;20533;-70
2024/01/11 12:12:09;;;;;;;37.93;25.23;;;;;;;;;;5100022;28;20458;-67
2024/01/11 12:14:35;;;;;;;34.53;23.50;;;;;;;;;;5100957;28;20463;-70
2024/01/11 12:17:02;;;;;;;34.83;23.87;;;;;;;;;;5105255;28;20485;-70
2024/01/11 12:19:28;;;;;;;37.70;22.45;;;;;;;;;;5097829;28;20458;-70
2024/01/11 12:21:55;;;;;;;37.33;22.83;;;;;;;;;;5106537;28;20240;-68
2024/01/11 12:24:23;;;;;;;41.83;22.20;;;;;;;;;;5108398;28;20481;-69
2024/01/11 12:26:50;;;;;;;44.90;24.50;;;;;;;;;;5101092;28;20462;-70
2024/01/11 12:29:18;;;;;;;42.73;23.50;;;;;;;;;;5099527;28;20468;-69
2024/01/11 12:31:44;;;;;;;48.33;23.33;;;;;;;;;;5099436;28;20474;-63
2024/01/11 12:34:12;;;;;;;34.63;21.60;;;;;;;;;;5101055;28;20502;-63
2024/01/11 12:36:39;;;;;;;38.67;23.70;;;;;;;;;;5043825;28;1129602;-63
2024/01/11 12:39:06;;;;;;;38.03;24.13;;;;;;;;;;5096430;28;20881;-63
2024/01/11 12:41:34;;;;;;;44.33;24.60;;;;;;;;;;5093789;28;20969;-62
2024/01/11 12:44:00;;;;;;;36.07;23.40;;;;;;;;;;5093736;28;20458;-62
2024/01/11 12:46:27;;;;;;;32.47;22.43;;;;;;;;;;5092885;28;20522;-63
2024/01/11 12:48:53;;;;;;;38.07;21.47;;;;;;;;;;5097277;28;20452;-62
2024/01/11 12:51:20;;;;;;;37.37;21.63;;;;;;;;;;5093236;28;20469;-63
2024/01/11 12:53:46;;;;;;;38.80;21.47;;;;;;;;;;5095850;28;20463;-63
2024/01/11 12:56:15;;;;;;;41.93;21.67;;;;;;;;;;5095758;28;20517;-63
2024/01/11 12:58:43;;;;;;;36.90;20.30;;;;;;;;;;5095639;28;20454;-63
2024/01/11 13:01:10;;;;;;;33.73;21.17;;;;;;;;;;5091869;28;21076;-64
2024/01/11 13:03:37;;;;;;;38.20;23.63;;;;;;;;;;5094475;28;20467;-66
2024/01/11 13:06:04;;;;;;;38.30;23.80;;;;;;;;;;5090459;28;20538;-67
2024/01/11 13:08:31;;;;;;;44.27;24.10;;;;;;;;;;5090071;28;20508;-66
2024/01/11 13:10:57;;;;;;;34.83;21.60;;;;;;;;;;5094824;28;20474;-66
2024/01/11 13:13:24;;;;;;;42.17;23.73;;;;;;;;;;5098755;28;20442;-66
2024/01/11 13:15:52;;;;;;;37.30;22.37;;;;;;;;;;5098057;28;20465;-65
2024/01/11 13:18:19;;;;;;;41.37;21.17;;;;;;;;;;5098013;28;20476;-65
2024/01/11 13:20:46;;;;;;;32.40;19.60;;;;;;;;;;5086770;28;20470;-66
2024/01/11 13:23:13;;;;;;;43.47;19.80;;;;;;;;;;5098530;28;20458;-67
2024/01/11 13:25:40;;;;;;;34.20;19.07;;;;;;;;;;5094631;28;20466;-67
2024/01/11 13:28:07;;;;;;;33.47;19.27;;;;;;;;;;5109165;28;20493;-66
2024/01/11 13:30:33;;;;;;;30.83;18.17;;;;;;;;;;5101550;28;20618;-66
2024/01/11 13:33:01;;;;;;;32.03;18.47;;;;;;;;;;5096227;28;20473;-67
2024/01/11 13:35:28;;;;;;;29.90;19.13;;;;;;;;;;5098830;28;20458;-66
2024/01/11 13:37:54;;;;;;;35.87;17.10;;;;;;;;;;5098313;28;20566;-67
2024/01/11 13:40:20;;;;;;;33.10;16.30;;;;;;;;;;5094532;28;20477;-66
2024/01/11 13:42:47;;;;;;;37.97;17.00;;;;;;;;;;5093776;28;20546;-65
2024/01/11 13:45:14;;;;;;;35.20;17.03;;;;;;;;;;5097899;28;20482;-67
2024/01/11 13:47:40;;;;;;;32.50;17.47;;;;;;;;;;5102521;28;20450;-66
2024/01/11 13:50:08;;;;;;;35.00;19.93;;;;;;;;;;5102876;28;20462;-66
2024/01/11 13:52:35;;;;;;;33.50;18.97;;;;;;;;;;5099019;28;20462;-67
2024/01/11 13:55:01;;;;;;;32.33;18.20;;;;;;;;;;5096762;28;20455;-66
2024/01/11 13:57:28;;;;;;;32.47;17.73;;;;;;;;;;5096275;28;20462;-67
2024/01/11 13:59:54;;;;;;;35.07;17.90;;;;;;;;;;5100531;28;20795;-69
2024/01/11 14:02:21;;;;;;;39.50;19.10;;;;;;;;;;5095488;28;20477;-66
2024/01/11 14:04:47;;;;;;;33.23;17.27;;;;;;;;;;5091357;28;20451;-65
2024/01/11 14:07:15;;;;;;;31.63;17.90;;;;;;;;;;5096828;28;20506;-65
2024/01/11 14:09:41;;;;;;;26.90;15.67;;;;;;;;;;5092943;28;20484;-67
2024/01/11 14:12:08;;;;;;;26.47;15.90;;;;;;;;;;5091334;28;20504;-70
2024/01/11 14:14:35;;;;;;;36.10;15.90;;;;;;;;;;5086566;28;20482;-69